sensor_id;sensor_type;location;lat;lon;timestamp;P1;durP1;ratioP1;P2;durP2;ratioP2
65009;SDS011;51556;50.002;22.014;2022-08-03T00:00:38;19.80;;;16.60;;
65009;SDS011;51556;50.002;22.014;2022-08-03T00:03:04;18.60;;;14.90;;
65009;SDS011;51556;50.002;22.014;2022-08-03T00:05:30;20.00;;;16.00;;
65009;SDS011;51556;50.002;22.014;2022-08-03T00:07:57;21.70;;;16.10;;
65009;SDS011;51556;50.002;22.014;2022-08-03T00:10:24;18.80;;;15.90;;
65009;SDS011;51556;50.002;22.014;2022-08-03T00:12:50;20.60;;;15.30;;
65009;SDS011;51556;50.002;22.014;2022-08-03T00:15:16;20.20;;;15.60;;
65009;SDS011;51556;50.002;22.014;2022-08-03T00:17:41;19.90;;;15.30;;
65009;SDS011;51556;50.002;22.014;2022-08-03T00:20:07;18.00;;;15.10;;
65009;SDS011;51556;50.002;22.014;2022-08-03T00:22:34;16.00;;;14.30;;
65009;SDS011;51556;50.002;22.014;2022-08-03T00:24:59;15.80;;;14.00;;
65009;SDS011;51556;50.002;22.014;2022-08-03T00:27:25;16.50;;;14.70;;
65009;SDS011;51556;50.002;22.014;2022-08-03T00:29:51;17.40;;;14.80;;
65009;SDS011;51556;50.002;22.014;2022-08-03T00:32:16;18.00;;;14.70;;
65009;SDS011;51556;50.002;22.014;2022-08-03T00:34:42;17.00;;;13.40;;
65009;SDS011;51556;50.002;22.014;2022-08-03T00:37:07;17.00;;;13.80;;
65009;SDS011;51556;50.002;22.014;2022-08-03T00:39:33;17.30;;;14.20;;
65009;SDS011;51556;50.002;22.014;2022-08-03T00:42:02;16.60;;;13.90;;
65009;SDS011;51556;50.002;22.014;2022-08-03T00:44:28;16.70;;;14.50;;
65009;SDS011;51556;50.002;22.014;2022-08-03T00:46:54;17.50;;;14.60;;
65009;SDS011;51556;50.002;22.014;2022-08-03T00:49:19;16.80;;;14.90;;
65009;SDS011;51556;50.002;22.014;2022-08-03T00:51:45;16.40;;;14.60;;
65009;SDS011;51556;50.002;22.014;2022-08-03T00:54:11;17.00;;;14.90;;
65009;SDS011;51556;50.002;22.014;2022-08-03T00:56:39;18.40;;;14.00;;
65009;SDS011;51556;50.002;22.014;2022-08-03T00:59:05;17.80;;;14.40;;
65009;SDS011;51556;50.002;22.014;2022-08-03T01:01:31;16.50;;;14.60;;
65009;SDS011;51556;50.002;22.014;2022-08-03T01:03:57;18.70;;;14.20;;
65009;SDS011;51556;50.002;22.014;2022-08-03T01:06:24;16.10;;;13.70;;
65009;SDS011;51556;50.002;22.014;2022-08-03T01:11:57;15.90;;;13.40;;
65009;SDS011;51556;50.002;22.014;2022-08-03T01:19:59;12.90;;;11.60;;
65009;SDS011;51556;50.002;22.014;2022-08-03T01:30:37;13.20;;;11.80;;
65009;SDS011;51556;50.002;22.014;2022-08-03T01:33:11;13.20;;;11.70;;
65009;SDS011;51556;50.002;22.014;2022-08-03T01:35:54;14.10;;;12.60;;
65009;SDS011;51556;50.002;22.014;2022-08-03T01:38:28;12.90;;;11.60;;
65009;SDS011;51556;50.002;22.014;2022-08-03T01:41:00;12.20;;;10.80;;
65009;SDS011;51556;50.002;22.014;2022-08-03T01:43:41;13.00;;;11.60;;
65009;SDS011;51556;50.002;22.014;2022-08-03T01:46:09;15.80;;;12.20;;
65009;SDS011;51556;50.002;22.014;2022-08-03T01:48:36;13.70;;;11.90;;
65009;SDS011;51556;50.002;22.014;2022-08-03T01:51:04;14.60;;;11.60;;
65009;SDS011;51556;50.002;22.014;2022-08-03T01:53:32;16.50;;;12.30;;
65009;SDS011;51556;50.002;22.014;2022-08-03T01:55:59;13.80;;;10.70;;
65009;SDS011;51556;50.002;22.014;2022-08-03T01:58:26;12.70;;;11.40;;
65009;SDS011;51556;50.002;22.014;2022-08-03T02:00:53;12.50;;;11.10;;
65009;SDS011;51556;50.002;22.014;2022-08-03T02:03:23;13.80;;;11.70;;
65009;SDS011;51556;50.002;22.014;2022-08-03T02:05:49;13.80;;;11.40;;
65009;SDS011;51556;50.002;22.014;2022-08-03T02:08:17;12.80;;;11.50;;
65009;SDS011;51556;50.002;22.014;2022-08-03T02:10:44;13.30;;;11.20;;
65009;SDS011;51556;50.002;22.014;2022-08-03T02:13:11;14.40;;;11.40;;
65009;SDS011;51556;50.002;22.014;2022-08-03T02:15:39;13.20;;;11.90;;
65009;SDS011;51556;50.002;22.014;2022-08-03T02:18:06;12.50;;;10.90;;
65009;SDS011;51556;50.002;22.014;2022-08-03T02:20:34;12.60;;;11.30;;
65009;SDS011;51556;50.002;22.014;2022-08-03T02:23:03;18.10;;;11.70;;
65009;SDS011;51556;50.002;22.014;2022-08-03T02:25:31;12.10;;;10.90;;
65009;SDS011;51556;50.002;22.014;2022-08-03T02:28:05;13.10;;;11.30;;
65009;SDS011;51556;50.002;22.014;2022-08-03T02:30:35;11.90;;;10.70;;
65009;SDS011;51556;50.002;22.014;2022-08-03T02:33:03;12.30;;;11.10;;
65009;SDS011;51556;50.002;22.014;2022-08-03T02:35:31;13.00;;;11.50;;
65009;SDS011;51556;50.002;22.014;2022-08-03T02:38:02;13.00;;;11.30;;
65009;SDS011;51556;50.002;22.014;2022-08-03T02:42:57;13.40;;;10.80;;
65009;SDS011;51556;50.002;22.014;2022-08-03T02:45:25;13.40;;;11.50;;
65009;SDS011;51556;50.002;22.014;2022-08-03T02:47:54;13.10;;;11.30;;
65009;SDS011;51556;50.002;22.014;2022-08-03T02:50:24;11.50;;;10.40;;
65009;SDS011;51556;50.002;22.014;2022-08-03T02:52:51;15.40;;;11.80;;
65009;SDS011;51556;50.002;22.014;2022-08-03T02:55:19;14.00;;;11.40;;
65009;SDS011;51556;50.002;22.014;2022-08-03T02:57:47;13.30;;;11.30;;
65009;SDS011;51556;50.002;22.014;2022-08-03T03:00:14;12.50;;;10.90;;
65009;SDS011;51556;50.002;22.014;2022-08-03T03:02:41;13.90;;;11.70;;
65009;SDS011;51556;50.002;22.014;2022-08-03T03:05:09;15.60;;;12.70;;
65009;SDS011;51556;50.002;22.014;2022-08-03T03:07:35;12.70;;;11.40;;
65009;SDS011;51556;50.002;22.014;2022-08-03T03:10:03;13.60;;;12.20;;
65009;SDS011;51556;50.002;22.014;2022-08-03T03:12:32;16.20;;;14.00;;
65009;SDS011;51556;50.002;22.014;2022-08-03T03:15:01;16.30;;;13.70;;
65009;SDS011;51556;50.002;22.014;2022-08-03T03:17:27;18.70;;;13.30;;
65009;SDS011;51556;50.002;22.014;2022-08-03T03:19:55;18.00;;;13.80;;
65009;SDS011;51556;50.002;22.014;2022-08-03T03:22:22;16.60;;;11.60;;
65009;SDS011;51556;50.002;22.014;2022-08-03T03:24:48;16.50;;;13.40;;
65009;SDS011;51556;50.002;22.014;2022-08-03T03:27:16;19.40;;;14.80;;
65009;SDS011;51556;50.002;22.014;2022-08-03T03:29:42;16.70;;;14.40;;
65009;SDS011;51556;50.002;22.014;2022-08-03T03:32:08;18.70;;;13.70;;
65009;SDS011;51556;50.002;22.014;2022-08-03T03:34:34;16.30;;;13.50;;
65009;SDS011;51556;50.002;22.014;2022-08-03T03:37:01;17.60;;;14.00;;
65009;SDS011;51556;50.002;22.014;2022-08-03T03:39:27;17.10;;;12.80;;
65009;SDS011;51556;50.002;22.014;2022-08-03T03:41:53;15.20;;;12.70;;
65009;SDS011;51556;50.002;22.014;2022-08-03T03:44:18;14.40;;;12.70;;
65009;SDS011;51556;50.002;22.014;2022-08-03T03:46:44;15.20;;;12.90;;
65009;SDS011;51556;50.002;22.014;2022-08-03T03:49:10;15.90;;;13.10;;
65009;SDS011;51556;50.002;22.014;2022-08-03T03:51:35;16.70;;;12.20;;
65009;SDS011;51556;50.002;22.014;2022-08-03T03:54:01;12.50;;;10.70;;
65009;SDS011;51556;50.002;22.014;2022-08-03T03:56:31;13.10;;;10.90;;
65009;SDS011;51556;50.002;22.014;2022-08-03T03:58:56;12.20;;;10.70;;
65009;SDS011;51556;50.002;22.014;2022-08-03T04:01:22;15.30;;;11.20;;
65009;SDS011;51556;50.002;22.014;2022-08-03T04:03:47;12.60;;;11.00;;
65009;SDS011;51556;50.002;22.014;2022-08-03T04:06:13;14.00;;;10.90;;
65009;SDS011;51556;50.002;22.014;2022-08-03T04:08:59;15.30;;;11.50;;
65009;SDS011;51556;50.002;22.014;2022-08-03T04:11:53;16.10;;;11.10;;
65009;SDS011;51556;50.002;22.014;2022-08-03T04:14:26;12.30;;;11.00;;
65009;SDS011;51556;50.002;22.014;2022-08-03T04:16:56;14.60;;;11.60;;
65009;SDS011;51556;50.002;22.014;2022-08-03T04:19:27;14.20;;;11.10;;
65009;SDS011;51556;50.002;22.014;2022-08-03T04:22:02;12.20;;;10.20;;
65009;SDS011;51556;50.002;22.014;2022-08-03T04:24:42;13.00;;;10.90;;
65009;SDS011;51556;50.002;22.014;2022-08-03T04:27:17;11.60;;;10.30;;
65009;SDS011;51556;50.002;22.014;2022-08-03T04:29:48;11.90;;;9.90;;
65009;SDS011;51556;50.002;22.014;2022-08-03T04:32:17;11.80;;;9.80;;
65009;SDS011;51556;50.002;22.014;2022-08-03T04:34:44;11.40;;;10.30;;
65009;SDS011;51556;50.002;22.014;2022-08-03T04:37:12;10.50;;;9.40;;
65009;SDS011;51556;50.002;22.014;2022-08-03T04:39:43;11.40;;;10.20;;
65009;SDS011;51556;50.002;22.014;2022-08-03T04:42:12;15.20;;;10.00;;
65009;SDS011;51556;50.002;22.014;2022-08-03T04:44:40;11.80;;;10.10;;
65009;SDS011;51556;50.002;22.014;2022-08-03T04:47:09;11.00;;;9.70;;
65009;SDS011;51556;50.002;22.014;2022-08-03T04:49:35;11.90;;;9.90;;
65009;SDS011;51556;50.002;22.014;2022-08-03T04:52:02;13.00;;;9.70;;
65009;SDS011;51556;50.002;22.014;2022-08-03T04:54:28;11.60;;;9.20;;
65009;SDS011;51556;50.002;22.014;2022-08-03T04:56:55;12.50;;;9.90;;
65009;SDS011;51556;50.002;22.014;2022-08-03T04:59:20;13.00;;;10.00;;
65009;SDS011;51556;50.002;22.014;2022-08-03T05:01:46;10.50;;;9.50;;
65009;SDS011;51556;50.002;22.014;2022-08-03T05:04:11;10.80;;;9.50;;
65009;SDS011;51556;50.002;22.014;2022-08-03T05:06:37;11.60;;;10.00;;
65009;SDS011;51556;50.002;22.014;2022-08-03T05:09:03;13.00;;;9.50;;
65009;SDS011;51556;50.002;22.014;2022-08-03T05:11:28;17.10;;;10.30;;
65009;SDS011;51556;50.002;22.014;2022-08-03T05:13:54;10.40;;;9.40;;
65009;SDS011;51556;50.002;22.014;2022-08-03T05:16:19;11.00;;;9.90;;
65009;SDS011;51556;50.002;22.014;2022-08-03T05:18:45;10.50;;;9.50;;
65009;SDS011;51556;50.002;22.014;2022-08-03T05:21:11;11.20;;;9.30;;
65009;SDS011;51556;50.002;22.014;2022-08-03T05:23:38;11.00;;;9.50;;
65009;SDS011;51556;50.002;22.014;2022-08-03T05:26:05;14.10;;;9.90;;
65009;SDS011;51556;50.002;22.014;2022-08-03T05:28:31;12.00;;;9.30;;
65009;SDS011;51556;50.002;22.014;2022-08-03T05:30:56;10.80;;;9.70;;
65009;SDS011;51556;50.002;22.014;2022-08-03T05:33:21;12.00;;;10.00;;
65009;SDS011;51556;50.002;22.014;2022-08-03T05:35:47;13.50;;;9.50;;
65009;SDS011;51556;50.002;22.014;2022-08-03T05:38:12;11.50;;;9.50;;
65009;SDS011;51556;50.002;22.014;2022-08-03T05:40:38;10.80;;;9.30;;
65009;SDS011;51556;50.002;22.014;2022-08-03T05:43:03;13.70;;;10.40;;
65009;SDS011;51556;50.002;22.014;2022-08-03T05:45:29;11.10;;;9.30;;
65009;SDS011;51556;50.002;22.014;2022-08-03T05:47:54;12.80;;;10.10;;
65009;SDS011;51556;50.002;22.014;2022-08-03T05:50:20;13.30;;;10.70;;
65009;SDS011;51556;50.002;22.014;2022-08-03T05:52:46;17.20;;;10.30;;
65009;SDS011;51556;50.002;22.014;2022-08-03T05:55:11;12.60;;;9.80;;
65009;SDS011;51556;50.002;22.014;2022-08-03T05:57:38;12.40;;;10.10;;
65009;SDS011;51556;50.002;22.014;2022-08-03T06:00:04;14.00;;;10.30;;
65009;SDS011;51556;50.002;22.014;2022-08-03T06:05:00;10.70;;;9.70;;
65009;SDS011;51556;50.002;22.014;2022-08-03T06:07:26;11.40;;;10.20;;
65009;SDS011;51556;50.002;22.014;2022-08-03T06:09:52;11.30;;;10.10;;
65009;SDS011;51556;50.002;22.014;2022-08-03T06:12:18;12.40;;;9.70;;
65009;SDS011;51556;50.002;22.014;2022-08-03T06:14:43;13.40;;;9.90;;
65009;SDS011;51556;50.002;22.014;2022-08-03T06:17:09;12.40;;;10.20;;
65009;SDS011;51556;50.002;22.014;2022-08-03T06:19:34;10.70;;;9.10;;
65009;SDS011;51556;50.002;22.014;2022-08-03T06:22:00;14.40;;;9.90;;
65009;SDS011;51556;50.002;22.014;2022-08-03T06:24:25;14.20;;;9.70;;
65009;SDS011;51556;50.002;22.014;2022-08-03T06:26:51;9.90;;;8.90;;
65009;SDS011;51556;50.002;22.014;2022-08-03T06:29:16;10.50;;;8.80;;
65009;SDS011;51556;50.002;22.014;2022-08-03T06:31:42;11.10;;;9.00;;
65009;SDS011;51556;50.002;22.014;2022-08-03T06:34:07;11.10;;;8.60;;
65009;SDS011;51556;50.002;22.014;2022-08-03T06:36:33;10.50;;;9.20;;
65009;SDS011;51556;50.002;22.014;2022-08-03T06:38:58;13.10;;;9.20;;
65009;SDS011;51556;50.002;22.014;2022-08-03T06:41:27;11.50;;;8.90;;
65009;SDS011;51556;50.002;22.014;2022-08-03T06:43:53;17.60;;;9.80;;
65009;SDS011;51556;50.002;22.014;2022-08-03T06:46:19;17.20;;;10.10;;
65009;SDS011;51556;50.002;22.014;2022-08-03T06:48:46;21.70;;;10.20;;
65009;SDS011;51556;50.002;22.014;2022-08-03T06:51:12;13.20;;;9.10;;
65009;SDS011;51556;50.002;22.014;2022-08-03T06:53:37;11.40;;;8.10;;
65009;SDS011;51556;50.002;22.014;2022-08-03T06:56:03;10.90;;;9.40;;
65009;SDS011;51556;50.002;22.014;2022-08-03T06:58:30;8.30;;;7.20;;
65009;SDS011;51556;50.002;22.014;2022-08-03T07:00:56;10.00;;;8.10;;
65009;SDS011;51556;50.002;22.014;2022-08-03T07:03:21;10.30;;;8.50;;
65009;SDS011;51556;50.002;22.014;2022-08-03T07:05:47;11.30;;;8.30;;
65009;SDS011;51556;50.002;22.014;2022-08-03T07:08:13;15.90;;;8.90;;
65009;SDS011;51556;50.002;22.014;2022-08-03T07:10:39;9.20;;;8.30;;
65009;SDS011;51556;50.002;22.014;2022-08-03T07:13:05;16.00;;;8.40;;
65009;SDS011;51556;50.002;22.014;2022-08-03T07:15:31;13.60;;;10.10;;
65009;SDS011;51556;50.002;22.014;2022-08-03T07:17:57;12.20;;;9.50;;
65009;SDS011;51556;50.002;22.014;2022-08-03T07:20:23;12.80;;;8.80;;
65009;SDS011;51556;50.002;22.014;2022-08-03T07:22:48;13.50;;;9.40;;
65009;SDS011;51556;50.002;22.014;2022-08-03T07:25:14;14.30;;;10.00;;
65009;SDS011;51556;50.002;22.014;2022-08-03T07:27:46;12.90;;;10.10;;
65009;SDS011;51556;50.002;22.014;2022-08-03T07:30:13;15.50;;;10.90;;
65009;SDS011;51556;50.002;22.014;2022-08-03T07:32:40;15.40;;;9.80;;
65009;SDS011;51556;50.002;22.014;2022-08-03T07:35:07;13.70;;;11.50;;
65009;SDS011;51556;50.002;22.014;2022-08-03T07:37:34;14.30;;;10.90;;
65009;SDS011;51556;50.002;22.014;2022-08-03T07:40:00;14.30;;;12.30;;
65009;SDS011;51556;50.002;22.014;2022-08-03T07:42:28;14.10;;;10.10;;
65009;SDS011;51556;50.002;22.014;2022-08-03T07:44:54;14.90;;;12.20;;
65009;SDS011;51556;50.002;22.014;2022-08-03T07:47:22;14.30;;;12.40;;
65009;SDS011;51556;50.002;22.014;2022-08-03T07:49:49;14.40;;;12.10;;
65009;SDS011;51556;50.002;22.014;2022-08-03T07:52:15;16.20;;;12.70;;
65009;SDS011;51556;50.002;22.014;2022-08-03T07:55:00;14.90;;;12.90;;
65009;SDS011;51556;50.002;22.014;2022-08-03T07:57:25;17.30;;;11.40;;
65009;SDS011;51556;50.002;22.014;2022-08-03T07:59:51;13.30;;;11.10;;
65009;SDS011;51556;50.002;22.014;2022-08-03T08:02:16;12.00;;;9.60;;
65009;SDS011;51556;50.002;22.014;2022-08-03T08:04:42;14.20;;;12.20;;
65009;SDS011;51556;50.002;22.014;2022-08-03T08:07:07;14.20;;;11.60;;
65009;SDS011;51556;50.002;22.014;2022-08-03T08:09:33;16.40;;;11.60;;
65009;SDS011;51556;50.002;22.014;2022-08-03T08:11:59;14.10;;;11.40;;
65009;SDS011;51556;50.002;22.014;2022-08-03T08:14:26;20.10;;;12.10;;
65009;SDS011;51556;50.002;22.014;2022-08-03T08:16:53;14.00;;;12.10;;
65009;SDS011;51556;50.002;22.014;2022-08-03T08:19:19;10.70;;;9.60;;
65009;SDS011;51556;50.002;22.014;2022-08-03T08:21:45;13.80;;;10.80;;
65009;SDS011;51556;50.002;22.014;2022-08-03T08:24:10;13.20;;;10.20;;
65009;SDS011;51556;50.002;22.014;2022-08-03T08:26:36;13.40;;;10.50;;
65009;SDS011;51556;50.002;22.014;2022-08-03T08:29:02;10.70;;;9.50;;
65009;SDS011;51556;50.002;22.014;2022-08-03T08:31:28;12.90;;;10.90;;
65009;SDS011;51556;50.002;22.014;2022-08-03T08:33:54;13.20;;;10.10;;
65009;SDS011;51556;50.002;22.014;2022-08-03T08:36:19;15.30;;;11.80;;
65009;SDS011;51556;50.002;22.014;2022-08-03T08:38:45;14.00;;;11.40;;
65009;SDS011;51556;50.002;22.014;2022-08-03T08:41:11;14.20;;;11.10;;
65009;SDS011;51556;50.002;22.014;2022-08-03T08:43:38;14.70;;;9.80;;
65009;SDS011;51556;50.002;22.014;2022-08-03T08:46:05;12.50;;;8.80;;
65009;SDS011;51556;50.002;22.014;2022-08-03T08:48:32;10.70;;;7.70;;
65009;SDS011;51556;50.002;22.014;2022-08-03T08:51:04;8.10;;;5.70;;
65009;SDS011;51556;50.002;22.014;2022-08-03T08:53:31;8.50;;;5.70;;
65009;SDS011;51556;50.002;22.014;2022-08-03T08:56:01;6.10;;;5.30;;
65009;SDS011;51556;50.002;22.014;2022-08-03T08:58:32;8.90;;;5.20;;
65009;SDS011;51556;50.002;22.014;2022-08-03T09:01:01;10.50;;;6.30;;
65009;SDS011;51556;50.002;22.014;2022-08-03T09:03:28;11.50;;;6.70;;
65009;SDS011;51556;50.002;22.014;2022-08-03T09:05:53;8.70;;;6.80;;
65009;SDS011;51556;50.002;22.014;2022-08-03T09:08:20;8.20;;;6.70;;
65009;SDS011;51556;50.002;22.014;2022-08-03T09:10:47;8.90;;;7.30;;
65009;SDS011;51556;50.002;22.014;2022-08-03T09:13:13;11.40;;;7.80;;
65009;SDS011;51556;50.002;22.014;2022-08-03T09:15:38;13.40;;;7.50;;
65009;SDS011;51556;50.002;22.014;2022-08-03T09:18:06;8.50;;;6.80;;
65009;SDS011;51556;50.002;22.014;2022-08-03T09:20:33;8.20;;;6.70;;
65009;SDS011;51556;50.002;22.014;2022-08-03T09:23:02;7.70;;;6.10;;
65009;SDS011;51556;50.002;22.014;2022-08-03T09:25:36;9.20;;;6.90;;
65009;SDS011;51556;50.002;22.014;2022-08-03T09:28:13;11.20;;;7.40;;
65009;SDS011;51556;50.002;22.014;2022-08-03T09:30:42;10.90;;;6.70;;
65009;SDS011;51556;50.002;22.014;2022-08-03T09:33:10;8.50;;;5.90;;
65009;SDS011;51556;50.002;22.014;2022-08-03T09:35:41;5.90;;;5.20;;
65009;SDS011;51556;50.002;22.014;2022-08-03T09:38:15;10.10;;;6.80;;
65009;SDS011;51556;50.002;22.014;2022-08-03T09:40:41;7.80;;;6.20;;
65009;SDS011;51556;50.002;22.014;2022-08-03T09:43:07;7.90;;;6.60;;
65009;SDS011;51556;50.002;22.014;2022-08-03T09:45:38;9.00;;;5.20;;
65009;SDS011;51556;50.002;22.014;2022-08-03T09:50:56;5.50;;;4.70;;
65009;SDS011;51556;50.002;22.014;2022-08-03T09:53:24;6.30;;;4.60;;
65009;SDS011;51556;50.002;22.014;2022-08-03T09:55:51;5.30;;;3.90;;
65009;SDS011;51556;50.002;22.014;2022-08-03T09:58:24;6.30;;;4.40;;
65009;SDS011;51556;50.002;22.014;2022-08-03T10:00:51;5.90;;;4.40;;
65009;SDS011;51556;50.002;22.014;2022-08-03T10:03:24;6.10;;;4.60;;
65009;SDS011;51556;50.002;22.014;2022-08-03T10:05:54;5.90;;;5.10;;
65009;SDS011;51556;50.002;22.014;2022-08-03T10:08:20;6.90;;;4.80;;
65009;SDS011;51556;50.002;22.014;2022-08-03T10:10:47;8.70;;;5.40;;
65009;SDS011;51556;50.002;22.014;2022-08-03T10:13:14;5.80;;;5.20;;
65009;SDS011;51556;50.002;22.014;2022-08-03T10:15:41;5.00;;;4.20;;
65009;SDS011;51556;50.002;22.014;2022-08-03T10:18:07;6.90;;;3.30;;
65009;SDS011;51556;50.002;22.014;2022-08-03T10:20:35;5.20;;;3.60;;
65009;SDS011;51556;50.002;22.014;2022-08-03T10:23:04;5.50;;;3.70;;
65009;SDS011;51556;50.002;22.014;2022-08-03T10:25:33;8.20;;;4.00;;
65009;SDS011;51556;50.002;22.014;2022-08-03T10:28:02;7.20;;;3.90;;
65009;SDS011;51556;50.002;22.014;2022-08-03T10:30:28;7.60;;;4.80;;
65009;SDS011;51556;50.002;22.014;2022-08-03T10:35:29;10.00;;;5.00;;
65009;SDS011;51556;50.002;22.014;2022-08-03T10:37:59;11.50;;;5.30;;
65009;SDS011;51556;50.002;22.014;2022-08-03T10:40:30;6.50;;;5.40;;
65009;SDS011;51556;50.002;22.014;2022-08-03T10:43:08;6.70;;;5.20;;
65009;SDS011;51556;50.002;22.014;2022-08-03T10:45:40;10.00;;;5.60;;
65009;SDS011;51556;50.002;22.014;2022-08-03T10:48:07;10.40;;;5.10;;
65009;SDS011;51556;50.002;22.014;2022-08-03T10:50:34;9.30;;;5.10;;
65009;SDS011;51556;50.002;22.014;2022-08-03T10:53:01;8.00;;;5.10;;
65009;SDS011;51556;50.002;22.014;2022-08-03T10:55:35;7.20;;;4.90;;
65009;SDS011;51556;50.002;22.014;2022-08-03T11:01:14;6.60;;;4.90;;
65009;SDS011;51556;50.002;22.014;2022-08-03T11:06:17;7.10;;;4.40;;
65009;SDS011;51556;50.002;22.014;2022-08-03T11:08:46;5.70;;;4.90;;
65009;SDS011;51556;50.002;22.014;2022-08-03T11:13:57;6.00;;;4.90;;
65009;SDS011;51556;50.002;22.014;2022-08-03T11:16:33;5.50;;;4.70;;
65009;SDS011;51556;50.002;22.014;2022-08-03T11:19:02;6.90;;;4.70;;
65009;SDS011;51556;50.002;22.014;2022-08-03T11:27:22;6.30;;;4.50;;
65009;SDS011;51556;50.002;22.014;2022-08-03T11:30:09;6.30;;;3.90;;
65009;SDS011;51556;50.002;22.014;2022-08-03T11:32:51;7.60;;;4.60;;
65009;SDS011;51556;50.002;22.014;2022-08-03T11:35:19;5.50;;;3.70;;
65009;SDS011;51556;50.002;22.014;2022-08-03T11:40:43;3.60;;;2.60;;
65009;SDS011;51556;50.002;22.014;2022-08-03T11:45:58;18.80;;;3.30;;
65009;SDS011;51556;50.002;22.014;2022-08-03T11:48:43;4.30;;;3.20;;
65009;SDS011;51556;50.002;22.014;2022-08-03T11:56:21;4.40;;;2.80;;
65009;SDS011;51556;50.002;22.014;2022-08-03T11:58:50;3.00;;;2.70;;
65009;SDS011;51556;50.002;22.014;2022-08-03T12:01:18;4.20;;;3.10;;
65009;SDS011;51556;50.002;22.014;2022-08-03T12:03:44;8.00;;;3.00;;
65009;SDS011;51556;50.002;22.014;2022-08-03T12:06:11;4.80;;;3.00;;
65009;SDS011;51556;50.002;22.014;2022-08-03T12:08:39;6.00;;;2.70;;
65009;SDS011;51556;50.002;22.014;2022-08-03T12:11:07;3.40;;;2.80;;
65009;SDS011;51556;50.002;22.014;2022-08-03T12:16:07;14.30;;;3.80;;
65009;SDS011;51556;50.002;22.014;2022-08-03T12:18:33;2.90;;;2.40;;
65009;SDS011;51556;50.002;22.014;2022-08-03T12:21:06;5.40;;;2.40;;
65009;SDS011;51556;50.002;22.014;2022-08-03T12:23:34;2.60;;;2.30;;
65009;SDS011;51556;50.002;22.014;2022-08-03T12:26:07;5.30;;;3.20;;
65009;SDS011;51556;50.002;22.014;2022-08-03T12:28:34;3.80;;;3.40;;
65009;SDS011;51556;50.002;22.014;2022-08-03T12:31:02;3.10;;;2.80;;
65009;SDS011;51556;50.002;22.014;2022-08-03T12:33:31;3.50;;;2.50;;
65009;SDS011;51556;50.002;22.014;2022-08-03T12:36:02;5.60;;;3.20;;
65009;SDS011;51556;50.002;22.014;2022-08-03T12:38:29;3.40;;;3.00;;
65009;SDS011;51556;50.002;22.014;2022-08-03T12:40:57;5.10;;;2.90;;
65009;SDS011;51556;50.002;22.014;2022-08-03T12:43:24;3.50;;;3.10;;
65009;SDS011;51556;50.002;22.014;2022-08-03T12:45:51;3.20;;;2.80;;
65009;SDS011;51556;50.002;22.014;2022-08-03T12:48:16;8.10;;;3.10;;
65009;SDS011;51556;50.002;22.014;2022-08-03T12:50:42;3.70;;;2.60;;
65009;SDS011;51556;50.002;22.014;2022-08-03T12:53:08;4.30;;;2.70;;
65009;SDS011;51556;50.002;22.014;2022-08-03T12:55:35;3.30;;;2.50;;
65009;SDS011;51556;50.002;22.014;2022-08-03T12:58:03;5.50;;;2.40;;
65009;SDS011;51556;50.002;22.014;2022-08-03T13:00:31;6.70;;;2.70;;
65009;SDS011;51556;50.002;22.014;2022-08-03T13:03:04;6.60;;;2.50;;
65009;SDS011;51556;50.002;22.014;2022-08-03T13:05:31;3.00;;;2.50;;
65009;SDS011;51556;50.002;22.014;2022-08-03T13:08:20;2.70;;;2.40;;
65009;SDS011;51556;50.002;22.014;2022-08-03T13:10:47;4.00;;;2.60;;
65009;SDS011;51556;50.002;22.014;2022-08-03T13:13:14;3.70;;;2.50;;
65009;SDS011;51556;50.002;22.014;2022-08-03T13:15:39;3.10;;;2.60;;
65009;SDS011;51556;50.002;22.014;2022-08-03T13:18:06;6.00;;;2.30;;
65009;SDS011;51556;50.002;22.014;2022-08-03T13:20:33;3.70;;;2.60;;
65009;SDS011;51556;50.002;22.014;2022-08-03T13:23:00;3.90;;;2.90;;
65009;SDS011;51556;50.002;22.014;2022-08-03T13:25:25;6.50;;;4.30;;
65009;SDS011;51556;50.002;22.014;2022-08-03T13:27:51;4.50;;;3.20;;
65009;SDS011;51556;50.002;22.014;2022-08-03T13:30:16;4.10;;;2.30;;
65009;SDS011;51556;50.002;22.014;2022-08-03T13:32:42;11.60;;;5.60;;
65009;SDS011;51556;50.002;22.014;2022-08-03T13:35:09;5.90;;;2.80;;
65009;SDS011;51556;50.002;22.014;2022-08-03T13:37:35;11.30;;;4.00;;
65009;SDS011;51556;50.002;22.014;2022-08-03T13:40:02;19.90;;;5.90;;
65009;SDS011;51556;50.002;22.014;2022-08-03T13:42:31;51.70;;;16.10;;
65009;SDS011;51556;50.002;22.014;2022-08-03T13:44:58;19.60;;;7.40;;
65009;SDS011;51556;50.002;22.014;2022-08-03T13:47:25;11.00;;;3.90;;
65009;SDS011;51556;50.002;22.014;2022-08-03T13:49:52;48.30;;;11.10;;
65009;SDS011;51556;50.002;22.014;2022-08-03T13:52:18;16.50;;;5.50;;
65009;SDS011;51556;50.002;22.014;2022-08-03T13:54:44;4.80;;;2.30;;
65009;SDS011;51556;50.002;22.014;2022-08-03T13:57:10;3.70;;;1.90;;
65009;SDS011;51556;50.002;22.014;2022-08-03T13:59:36;5.00;;;1.70;;
65009;SDS011;51556;50.002;22.014;2022-08-03T14:02:02;2.00;;;1.70;;
65009;SDS011;51556;50.002;22.014;2022-08-03T14:04:29;19.90;;;6.30;;
65009;SDS011;51556;50.002;22.014;2022-08-03T14:06:54;2.60;;;1.60;;
65009;SDS011;51556;50.002;22.014;2022-08-03T14:09:20;12.20;;;4.90;;
65009;SDS011;51556;50.002;22.014;2022-08-03T14:11:46;4.70;;;1.60;;
65009;SDS011;51556;50.002;22.014;2022-08-03T14:14:12;4.50;;;1.80;;
65009;SDS011;51556;50.002;22.014;2022-08-03T14:16:37;10.00;;;3.40;;
65009;SDS011;51556;50.002;22.014;2022-08-03T14:19:03;3.90;;;1.90;;
65009;SDS011;51556;50.002;22.014;2022-08-03T14:21:29;4.60;;;1.60;;
65009;SDS011;51556;50.002;22.014;2022-08-03T14:23:55;8.70;;;2.80;;
65009;SDS011;51556;50.002;22.014;2022-08-03T14:26:21;3.00;;;1.70;;
65009;SDS011;51556;50.002;22.014;2022-08-03T14:28:48;2.20;;;1.80;;
65009;SDS011;51556;50.002;22.014;2022-08-03T14:31:13;3.50;;;2.10;;
65009;SDS011;51556;50.002;22.014;2022-08-03T14:33:39;2.50;;;1.30;;
65009;SDS011;51556;50.002;22.014;2022-08-03T14:36:04;2.60;;;1.50;;
65009;SDS011;51556;50.002;22.014;2022-08-03T14:38:30;2.40;;;1.40;;
65009;SDS011;51556;50.002;22.014;2022-08-03T14:40:56;2.40;;;1.60;;
65009;SDS011;51556;50.002;22.014;2022-08-03T14:43:22;3.30;;;1.50;;
65009;SDS011;51556;50.002;22.014;2022-08-03T14:45:48;3.90;;;1.30;;
65009;SDS011;51556;50.002;22.014;2022-08-03T14:48:16;2.20;;;1.60;;
65009;SDS011;51556;50.002;22.014;2022-08-03T14:50:43;3.40;;;1.60;;
65009;SDS011;51556;50.002;22.014;2022-08-03T14:53:08;3.20;;;1.80;;
65009;SDS011;51556;50.002;22.014;2022-08-03T14:55:34;1.80;;;1.50;;
65009;SDS011;51556;50.002;22.014;2022-08-03T14:58:00;3.90;;;1.60;;
65009;SDS011;51556;50.002;22.014;2022-08-03T15:00:32;2.90;;;1.50;;
65009;SDS011;51556;50.002;22.014;2022-08-03T15:02:59;2.50;;;1.70;;
65009;SDS011;51556;50.002;22.014;2022-08-03T15:05:24;3.20;;;1.70;;
65009;SDS011;51556;50.002;22.014;2022-08-03T15:07:50;2.50;;;1.40;;
65009;SDS011;51556;50.002;22.014;2022-08-03T15:10:15;4.00;;;2.20;;
65009;SDS011;51556;50.002;22.014;2022-08-03T15:12:41;4.90;;;1.70;;
65009;SDS011;51556;50.002;22.014;2022-08-03T15:15:06;5.10;;;1.70;;
65009;SDS011;51556;50.002;22.014;2022-08-03T15:17:32;6.60;;;1.60;;